Terminal Aerodrome Forecast
Issued by NWS

Home | Current Version | Previous Version | Text Only | Print | Product List | Glossary On
Versions: 1 2 3 4 5 6 7 8 9 10 11 12 13 14 15 16 17 18 19
000
FTUS44 KLZK 212123 AAA
TAFADF
TAF AMD
KADF 212123Z 2121/2218 04008KT 6SM RA BR BKN007 OVC025
      WS020/08040KT
     FM220000 05008KT 5SM -RA BR BKN006 OVC020
     FM220600 05007KT 4SM -RA BKN004 OVC015=

USA.gov is the U.S. government's official web portal to all federal, state and local government web resources and services.